Time;durP1;ratioP1;P1;durP2;ratioP2;P2;SDS_P1;SDS_P2;PMS_P1;PMS_P2;Temp;Humidity;BMP_temperature;BMP_pressure;BME280_temperature;BME280_humidity;BME280_pressure;Samples;Min_cycle;Max_cycle;Signal;HPM_P1;HPM_P2
2021/10/28 00:13:53;;;;;;;11.93;5.90;;;9.90;99.90;;;;;;5071477;28;20231;-61
2021/10/28 00:16:24;;;;;;;8.40;5.57;;;10.00;99.90;;;;;;5071282;28;20292;-61
2021/10/28 00:18:59;;;;;;;9.27;6.27;;;9.90;99.90;;;;;;5071377;28;20213;-61
2021/10/28 00:21:27;;;;;;;9.77;5.73;;;9.90;99.90;;;;;;5071367;28;20720;-61
2021/10/28 00:23:59;;;;;;;11.03;6.13;;;9.90;99.90;;;;;;5071322;28;20212;-61
2021/10/28 00:26:25;;;;;;;11.03;5.87;;;9.90;1.00;;;;;;5071228;28;20257;-61
2021/10/28 00:28:57;;;;;;;10.53;5.77;;;9.90;1.00;;;;;;5071137;28;20209;-61
2021/10/28 00:31:25;;;;;;;9.63;5.97;;;9.80;99.90;;;;;;5071099;28;20232;-61
2021/10/28 00:33:53;;;;;;;10.10;6.47;;;9.80;1.00;;;;;;5071295;28;20209;-61
2021/10/28 00:36:20;;;;;;;11.87;7.20;;;9.80;38.40;;;;;;5073559;28;20695;-60
2021/10/28 00:38:48;;;;;;;10.40;5.80;;;9.80;99.90;;;;;;5075124;28;20209;-61
2021/10/28 00:41:15;;;;;;;11.43;7.20;;;9.80;99.90;;;;;;5074906;28;20708;-61
2021/10/28 00:43:46;;;;;;;10.90;6.80;;;9.80;99.90;;;;;;5074793;28;20208;-61
2021/10/28 00:46:13;;;;;;;12.90;7.10;;;9.70;1.00;;;;;;5074319;28;20211;-61
2021/10/28 00:48:41;;;;;;;10.93;6.83;;;9.70;1.00;;;;;;5075066;28;20604;-61
2021/10/28 00:51:08;;;;;;;13.77;7.00;;;9.80;2.70;;;;;;5074976;28;20251;-61
2021/10/28 00:53:35;;;;;;;9.83;6.37;;;9.80;1.00;;;;;;5074683;28;20220;-61
2021/10/28 00:56:03;;;;;;;11.93;6.93;;;9.80;1.00;;;;;;5074439;28;20672;-61
2021/10/28 00:58:31;;;;;;;10.77;6.90;;;9.80;1.00;;;;;;5074679;28;20564;-61
2021/10/28 01:01:00;;;;;;;10.37;6.27;;;9.80;1.00;;;;;;5074727;28;20207;-61
2021/10/28 01:03:26;;;;;;;12.40;7.97;;;9.70;1.00;;;;;;5074740;28;20208;-61
2021/10/28 01:05:55;;;;;;;11.67;7.27;;;9.70;99.90;;;;;;5075778;28;20307;-61
2021/10/28 01:08:22;;;;;;;10.67;7.37;;;9.70;99.90;;;;;;5075983;28;20205;-61
2021/10/28 01:10:51;;;;;;;12.27;7.53;;;9.70;99.90;;;;;;5075911;28;20224;-61
2021/10/28 01:13:20;;;;;;;13.60;7.83;;;9.70;1.00;;;;;;5075887;28;20255;-61
2021/10/28 01:15:47;;;;;;;12.40;7.67;;;9.60;1.00;;;;;;5073774;28;20625;-61
2021/10/28 01:18:15;;;;;;;11.90;7.60;;;9.60;1.00;;;;;;5074040;28;20234;-61
2021/10/28 01:20:45;;;;;;;11.00;6.80;;;9.60;1.00;;;;;;5074129;28;20212;-62
2021/10/28 01:23:13;;;;;;;16.53;9.37;;;9.60;99.90;;;;;;5073988;28;20225;-61
2021/10/28 01:25:41;;;;;;;11.47;7.67;;;9.50;99.90;;;;;;5073439;28;20205;-61
2021/10/28 01:28:09;;;;;;;13.53;8.30;;;9.50;99.90;;;;;;5074019;28;20224;-61
2021/10/28 01:30:35;;;;;;;12.10;7.20;;;9.50;99.90;;;;;;5073808;28;20225;-61
2021/10/28 01:33:02;;;;;;;13.07;8.50;;;9.50;99.90;;;;;;5073887;28;20229;-61
2021/10/28 01:35:29;;;;;;;15.10;8.83;;;9.50;99.90;;;;;;5073490;28;20212;-61
2021/10/28 01:37:57;;;;;;;14.50;9.23;;;9.40;99.90;;;;;;5073660;28;20205;-61
2021/10/28 01:40:24;;;;;;;11.30;8.20;;;9.50;99.90;;;;;;5073671;28;20294;-61
2021/10/28 01:42:51;;;;;;;13.30;8.43;;;9.50;99.90;;;;;;5073512;28;20720;-61
2021/10/28 01:45:19;;;;;;;13.17;8.77;;;9.50;99.90;;;;;;5073424;28;20224;-61
2021/10/28 01:47:46;;;;;;;10.83;7.93;;;9.40;99.90;;;;;;5073765;28;20675;-61
2021/10/28 01:50:13;;;;;;;14.23;8.80;;;9.40;99.90;;;;;;5073553;28;20620;-61
2021/10/28 01:52:40;;;;;;;15.10;8.30;;;9.40;99.90;;;;;;5073273;28;20236;-61
2021/10/28 01:55:10;;;;;;;13.33;8.30;;;9.40;99.90;;;;;;5073328;28;20201;-60
2021/10/28 01:57:37;;;;;;;14.03;8.47;;;9.40;99.90;;;;;;5073575;28;20230;-60
2021/10/28 02:00:04;;;;;;;14.37;9.30;;;9.30;99.90;;;;;;5073546;28;20212;-60
2021/10/28 02:02:31;;;;;;;16.23;10.10;;;9.30;1.00;;;;;;5073466;28;20255;-61
2021/10/28 02:04:57;;;;;;;15.40;9.83;;;9.30;1.00;;;;;;5073029;28;20560;-61
2021/10/28 02:07:24;;;;;;;14.37;9.53;;;9.20;98.90;;;;;;5072885;28;20669;-61
2021/10/28 02:09:51;;;;;;;17.97;9.93;;;9.20;99.90;;;;;;5073460;28;20265;-61
2021/10/28 02:12:19;;;;;;;16.53;10.20;;;9.20;1.00;;;;;;5073146;28;20368;-61
2021/10/28 02:14:45;;;;;;;16.80;10.40;;;9.20;1.00;;;;;;5072909;28;20263;-60
2021/10/28 02:17:12;;;;;;;17.90;9.70;;;9.10;1.00;;;;;;5073043;28;20223;-60
2021/10/28 02:19:38;;;;;;;17.63;10.80;;;9.10;39.40;;;;;;5073350;28;20628;-61
2021/10/28 02:22:06;;;;;;;19.07;10.80;;;9.10;99.90;;;;;;5072587;28;20231;-61
2021/10/28 02:24:34;;;;;;;15.20;10.23;;;9.10;99.90;;;;;;5072700;28;20238;-61
2021/10/28 02:27:01;;;;;;;17.70;11.10;;;9.10;99.90;;;;;;5072868;28;20218;-61
2021/10/28 02:29:29;;;;;;;21.07;12.03;;;9.10;99.90;;;;;;5072635;28;20741;-61
2021/10/28 02:31:57;;;;;;;20.53;11.47;;;9.10;99.90;;;;;;5072657;28;20289;-61
2021/10/28 02:34:23;;;;;;;18.50;11.53;;;9.10;1.00;;;;;;5072565;28;20300;-61
2021/10/28 02:36:50;;;;;;;18.43;11.60;;;9.10;1.00;;;;;;5072051;28;20211;-61
2021/10/28 02:39:17;;;;;;;21.43;13.30;;;9.10;1.00;;;;;;5072733;28;20630;-61
2021/10/28 02:41:44;;;;;;;22.60;12.80;;;9.10;1.00;;;;;;5072390;28;20939;-60
2021/10/28 02:44:11;;;;;;;20.27;12.70;;;9.10;68.00;;;;;;5072600;28;20241;-60
2021/10/28 02:46:40;;;;;;;18.53;11.33;;;9.00;99.90;;;;;;5072064;28;20212;-60
2021/10/28 02:49:11;;;;;;;20.43;13.03;;;9.00;99.90;;;;;;5072283;28;20299;-61
2021/10/28 02:51:37;;;;;;;21.43;13.00;;;9.00;1.00;;;;;;5072303;28;20231;-61
2021/10/28 02:54:04;;;;;;;21.10;12.70;;;9.10;1.00;;;;;;5072337;28;20696;-61
2021/10/28 02:56:31;;;;;;;22.83;13.07;;;9.00;1.00;;;;;;5072116;28;20211;-61
2021/10/28 02:58:58;;;;;;;22.57;13.93;;;9.00;99.90;;;;;;5071855;28;20265;-61
2021/10/28 03:01:24;;;;;;;23.73;14.27;;;9.00;73.60;;;;;;5072071;28;20592;-61
2021/10/28 03:03:52;;;;;;;21.17;13.30;;;9.10;99.90;;;;;;5072442;28;20258;-61
2021/10/28 03:06:19;;;;;;;23.60;14.83;;;9.10;1.00;;;;;;5072043;28;20208;-60
2021/10/28 03:08:48;;;;;;;22.43;13.83;;;9.10;1.00;;;;;;5072280;28;20303;-61
2021/10/28 03:11:15;;;;;;;22.33;13.57;;;9.10;1.00;;;;;;5072096;28;20274;-61
2021/10/28 03:13:41;;;;;;;23.70;14.50;;;9.10;1.00;;;;;;5072130;28;20215;-61
2021/10/28 03:16:17;;;;;;;22.83;13.37;;;9.10;99.90;;;;;;5071483;28;20211;-61
2021/10/28 03:27:07;;;;;;;26.30;14.07;;;9.00;11.20;;;;;;5071883;28;20337;-60
2021/10/28 03:29:33;;;;;;;22.10;13.47;;;9.00;1.00;;;;;;5072065;28;20211;-61
2021/10/28 03:32:00;;;;;;;23.40;14.00;;;9.00;1.00;;;;;;5071866;28;20258;-61
2021/10/28 03:34:27;;;;;;;20.27;13.20;;;9.00;99.90;;;;;;5072046;28;20215;-61
2021/10/28 03:37:00;;;;;;;21.10;13.70;;;9.00;99.90;;;;;;5071066;28;20299;-60
2021/10/28 03:39:42;;;;;;;24.27;13.93;;;9.00;1.00;;;;;;5072113;28;20216;-61
2021/10/28 03:45:23;;;;;;;26.27;14.60;;;8.90;1.00;;;;;;5071097;28;20685;-61
2021/10/28 03:59:18;;;;;;;26.67;15.20;;;8.90;99.90;;;;;;5071981;28;20225;-61
2021/10/28 04:04:53;;;;;;;25.50;15.10;;;8.90;99.90;;;;;;5071837;28;20199;-61
2021/10/28 04:07:41;;;;;;;24.33;14.47;;;9.00;99.90;;;;;;5071584;28;20269;-61
2021/10/28 04:18:41;;;;;;;26.03;16.00;;;8.90;1.00;;;;;;5093948;28;20216;-61
2021/10/28 04:21:20;;;;;;;29.07;16.67;;;9.00;6.10;;;;;;5095449;28;20208;-61
2021/10/28 04:29:17;;;;;;;29.57;17.07;;;9.10;1.00;;;;;;5095012;28;20674;-62
2021/10/28 04:31:43;;;;;;;33.33;16.60;;;9.10;1.00;;;;;;5094967;28;20258;-62
2021/10/28 04:34:11;;;;;;;28.20;16.97;;;9.10;1.00;;;;;;5094967;28;20743;-62
2021/10/28 04:36:39;;;;;;;28.40;16.93;;;9.10;99.90;;;;;;5094217;28;20214;-63
2021/10/28 04:39:07;;;;;;;27.33;16.37;;;9.10;99.90;;;;;;5094971;28;20204;-63
2021/10/28 04:41:36;;;;;;;26.13;16.80;;;9.10;95.60;;;;;;5094587;28;20266;-63
2021/10/28 04:44:06;;;;;;;24.93;15.50;;;9.10;1.00;;;;;;5095117;28;20221;-63
2021/10/28 04:46:33;;;;;;;26.80;16.37;;;9.10;1.00;;;;;;5094204;28;20204;-63
2021/10/28 04:49:00;;;;;;;26.90;16.60;;;9.10;99.90;;;;;;5094811;28;20641;-63
2021/10/28 04:51:26;;;;;;;31.70;17.80;;;9.10;99.90;;;;;;5094464;28;20238;-63
2021/10/28 04:53:53;;;;;;;29.77;18.03;;;9.10;99.90;;;;;;5094733;28;20270;-63
2021/10/28 04:56:20;;;;;;;29.07;18.53;;;9.10;54.80;;;;;;5093760;28;20212;-64
2021/10/28 04:58:48;;;;;;;34.40;18.83;;;9.10;1.00;;;;;;5094758;28;20200;-63
2021/10/28 05:01:15;;;;;;;32.50;18.53;;;9.10;95.30;;;;;;5094614;28;20221;-63
2021/10/28 05:03:41;;;;;;;34.30;19.20;;;9.10;99.90;;;;;;5094537;28;20207;-63
2021/10/28 05:06:08;;;;;;;32.83;19.10;;;9.10;99.10;;;;;;5093792;28;20214;-63
2021/10/28 05:08:35;;;;;;;29.60;18.83;;;9.10;99.90;;;;;;5094106;28;20207;-63
2021/10/28 05:11:02;;;;;;;33.50;19.70;;;9.10;99.90;;;;;;5094734;28;20261;-63
2021/10/28 05:13:28;;;;;;;30.60;18.47;;;9.10;99.90;;;;;;5089850;28;20330;-66
2021/10/28 05:15:57;;;;;;;28.93;17.77;;;9.10;92.30;;;;;;5081113;28;20286;-61
2021/10/28 05:18:25;;;;;;;30.90;17.87;;;9.10;1.00;;;;;;5093966;28;20203;-61
2021/10/28 05:20:52;;;;;;;32.10;18.90;;;9.10;99.90;;;;;;5093350;28;20622;-62
2021/10/28 05:23:20;;;;;;;30.67;17.40;;;9.10;99.90;;;;;;5093600;28;20227;-64
2021/10/28 05:25:48;;;;;;;33.20;19.20;;;9.10;99.90;;;;;;5093035;28;20204;-63
2021/10/28 05:28:15;;;;;;;34.07;19.23;;;9.10;99.90;;;;;;5093794;28;20211;-63
2021/10/28 05:30:43;;;;;;;31.13;17.90;;;9.10;1.00;;;;;;5093640;28;20207;-63
2021/10/28 05:33:10;;;;;;;34.03;18.83;;;9.20;1.00;;;;;;5093244;28;20718;-64
2021/10/28 05:35:37;;;;;;;31.77;18.27;;;9.10;1.00;;;;;;5092781;28;20226;-64
2021/10/28 05:38:04;;;;;;;30.73;17.83;;;9.20;1.00;;;;;;5093376;28;20258;-64
2021/10/28 05:40:31;;;;;;;31.33;18.30;;;9.20;99.90;;;;;;5093430;28;20680;-66
2021/10/28 05:42:57;;;;;;;28.27;17.30;;;9.20;99.90;;;;;;5093383;28;20220;-63
2021/10/28 05:45:25;;;;;;;28.53;17.03;;;9.20;39.90;;;;;;5092666;28;20204;-64
2021/10/28 05:47:52;;;;;;;31.90;17.37;;;9.10;1.00;;;;;;5092668;28;20323;-64
2021/10/28 05:50:21;;;;;;;28.20;17.47;;;9.10;1.00;;;;;;5092923;28;20208;-64
2021/10/28 05:52:50;;;;;;;28.00;16.87;;;9.10;1.00;;;;;;5093185;28;20263;-60
2021/10/28 05:55:17;;;;;;;29.47;17.27;;;9.10;43.10;;;;;;5092367;28;20236;-59
2021/10/28 05:57:44;;;;;;;28.83;16.53;;;9.10;99.90;;;;;;5093023;28;20205;-60
2021/10/28 06:00:11;;;;;;;27.40;17.47;;;9.10;62.60;;;;;;5092867;28;20216;-60
2021/10/28 06:02:39;;;;;;;30.57;17.07;;;9.20;99.90;;;;;;5092774;28;20220;-60
2021/10/28 06:05:07;;;;;;;27.67;17.43;;;9.20;1.00;;;;;;5092097;28;20250;-64
2021/10/28 06:07:35;;;;;;;29.20;16.47;;;9.20;1.00;;;;;;5092881;28;20226;-65
2021/10/28 06:10:02;;;;;;;30.27;16.50;;;9.20;1.00;;;;;;5092933;28;20242;-65
2021/10/28 06:12:33;;;;;;;33.87;17.57;;;9.30;1.00;;;;;;5092878;28;20280;-66
2021/10/28 06:15:02;;;;;;;28.40;16.57;;;9.30;99.90;;;;;;5092800;28;20212;-66
2021/10/28 06:17:31;;;;;;;27.67;17.60;;;9.30;99.90;;;;;;5092974;28;20676;-64
2021/10/28 06:19:59;;;;;;;28.57;16.40;;;9.30;99.90;;;;;;5093239;28;20226;-67
2021/10/28 06:22:26;;;;;;;30.07;17.57;;;9.30;99.90;;;;;;5093309;28;20228;-62
2021/10/28 06:24:54;;;;;;;27.53;17.47;;;9.30;27.40;;;;;;5092043;28;20683;-63
2021/10/28 06:27:21;;;;;;;27.27;17.07;;;9.40;10.60;;;;;;5092471;28;20218;-63
2021/10/28 06:29:48;;;;;;;30.23;17.60;;;9.40;1.00;;;;;;5092225;28;20204;-61
2021/10/28 06:32:15;;;;;;;27.07;16.43;;;9.50;1.00;;;;;;5091739;28;20245;-62
2021/10/28 06:34:44;;;;;;;29.50;17.23;;;9.50;99.90;;;;;;5091588;28;20204;-62
2021/10/28 06:37:11;;;;;;;30.10;16.77;;;9.60;99.90;;;;;;5092092;28;20744;-63
2021/10/28 06:39:38;;;;;;;28.93;17.60;;;9.70;48.90;;;;;;5092346;28;20214;-63
2021/10/28 06:42:10;;;;;;;27.47;16.00;;;9.70;1.00;;;;;;5092130;28;20224;-63
2021/10/28 06:44:37;;;;;;;24.97;16.80;;;9.80;99.90;;;;;;5091483;28;20211;-63
2021/10/28 06:47:04;;;;;;;23.80;16.20;;;9.80;99.90;;;;;;5092046;28;20709;-63
2021/10/28 06:49:33;;;;;;;23.60;15.07;;;9.80;20.50;;;;;;5092160;28;20204;-64
2021/10/28 06:52:01;;;;;;;25.40;16.30;;;9.80;1.00;;;;;;5091881;28;20232;-66
2021/10/28 06:54:31;;;;;;;24.67;15.17;;;9.90;1.00;;;;;;5091905;28;20214;-62
2021/10/28 06:57:17;;;;;;;24.10;15.53;;;9.90;1.00;;;;;;5091659;28;20211;-64
2021/10/28 07:02:43;;;;;;;22.57;14.70;;;10.00;99.90;;;;;;5091572;28;20775;-63
2021/10/28 07:05:10;;;;;;;22.60;14.30;;;10.10;99.90;;;;;;5091168;28;20210;-61
2021/10/28 07:07:36;;;;;;;23.43;14.37;;;10.10;99.90;;;;;;5091794;28;20211;-62
2021/10/28 07:10:08;;;;;;;23.47;15.00;;;10.20;99.90;;;;;;5091926;28;20212;-62
2021/10/28 07:15:26;;;;;;;24.77;14.40;;;10.20;58.80;;;;;;5088217;28;20200;-61
2021/10/28 07:26:23;;;;;;;19.43;13.37;;;10.40;1.00;;;;;;5091067;28;20199;-64
2021/10/28 07:29:54;;;;;;;20.37;13.70;;;10.50;99.90;;;;;;5091562;28;20216;-65
2021/10/28 07:32:15;;;;;;;19.73;12.53;;;10.60;99.90;;;;;;5091063;28;20250;-63
2021/10/28 07:59:47;;;;;;;12.00;7.80;;;11.30;46.90;;;;;;5095026;28;20249;-63
2021/10/28 08:05:43;;;;;;;12.63;7.80;;;11.50;15.50;;;;;;5012167;28;20206;-63
2021/10/28 08:13:58;;;;;;;13.23;6.90;;;11.70;1.00;;;;;;5095041;28;20231;-66
2021/10/28 08:16:42;;;;;;;11.30;6.50;;;11.80;1.00;;;;;;5094860;28;20220;-65
2021/10/28 08:19:18;;;;;;;11.27;7.23;;;11.90;1.00;;;;;;5095181;28;20566;-65
2021/10/28 08:21:50;;;;;;;11.37;7.17;;;12.00;1.00;;;;;;5094970;28;20229;-65
2021/10/28 08:28:40;;;;;;;11.67;7.90;;;12.10;1.00;;;;;;5094627;28;20643;-65
2021/10/28 08:30:07;;;;;;;10.40;7.23;;;12.20;1.00;;;;;;5094514;28;20206;-65
2021/10/28 08:32:34;;;;;;;9.77;6.93;;;12.30;1.00;;;;;;5094668;28;20225;-62
2021/10/28 08:35:02;;;;;;;11.30;7.50;;;12.40;1.00;;;;;;5093937;28;20346;-66
2021/10/28 08:37:37;;;;;;;10.93;7.63;;;12.50;1.00;;;;;;5094562;28;20291;-63
2021/10/28 08:40:06;;;;;;;11.23;7.23;;;12.60;1.00;;;;;;5094652;28;20672;-64
2021/10/28 08:42:33;;;;;;;13.73;7.90;;;12.60;1.00;;;;;;5094405;28;20222;-64
2021/10/28 08:45:00;;;;;;;12.17;7.63;;;12.70;1.00;;;;;;5093743;28;20234;-64
2021/10/28 08:47:29;;;;;;;13.30;8.07;;;12.70;1.00;;;;;;5094185;28;20551;-63
2021/10/28 08:49:59;;;;;;;10.90;7.63;;;12.70;1.00;;;;;;5094564;28;20253;-64
2021/10/28 08:52:42;;;;;;;10.80;7.67;;;12.80;1.00;;;;;;5094395;28;20270;-64
2021/10/28 08:55:19;;;;;;;12.73;8.30;;;12.90;1.00;;;;;;5093859;28;20200;-62
2021/10/28 09:25:35;;;;;;;12.13;7.30;;;13.70;1.00;;;;;;5093258;28;20633;-64
2021/10/28 09:28:09;;;;;;;8.97;6.80;;;13.80;1.00;;;;;;5093789;28;20215;-65
2021/10/28 09:30:43;;;;;;;8.63;5.93;;;13.90;1.00;;;;;;5093357;28;20204;-65
2021/10/28 09:33:12;;;;;;;13.57;6.97;;;14.00;1.00;;;;;;5093158;28;20228;-63
2021/10/28 09:36:15;;;;;;;10.97;6.90;;;14.10;1.00;;;;;;5092939;28;20212;-59
2021/10/28 09:44:20;;;;;;;11.60;6.03;;;14.40;1.00;;;;;;5093147;28;20216;-60
2021/10/28 09:46:47;;;;;;;8.60;5.70;;;14.50;1.00;;;;;;5093127;28;20261;-61
2021/10/28 09:52:03;;;;;;;6.13;5.10;;;14.70;1.00;;;;;;5092588;28;20673;-62
2021/10/28 09:54:37;;;;;;;7.13;5.23;;;14.70;1.00;;;;;;5092965;28;20235;-57
2021/10/28 09:59:53;;;;;;;6.07;4.37;;;14.90;1.00;;;;;;5092865;28;20218;-63
2021/10/28 10:02:24;;;;;;;7.03;4.77;;;15.00;1.00;;;;;;5092794;28;20228;-63
2021/10/28 10:04:51;;;;;;;7.13;4.00;;;15.10;1.00;;;;;;5091356;28;20294;-62
2021/10/28 10:07:20;;;;;;;7.20;4.33;;;15.10;1.00;;;;;;5095579;28;20656;-61
2021/10/28 10:09:47;;;;;;;6.03;4.10;;;15.10;1.00;;;;;;5112502;28;20253;-63
2021/10/28 10:12:14;;;;;;;6.90;4.30;;;15.10;1.00;;;;;;5113095;28;20306;-61
2021/10/28 10:14:42;;;;;;;8.90;4.00;;;15.20;1.00;;;;;;5112210;28;20219;-60
2021/10/28 10:17:12;;;;;;;7.00;4.43;;;15.20;1.00;;;;;;5112776;28;20616;-63
2021/10/28 10:19:42;;;;;;;6.87;4.10;;;15.40;1.00;;;;;;5113095;28;20203;-62
2021/10/28 10:22:21;;;;;;;5.73;4.10;;;15.40;1.00;;;;;;5107274;28;20259;-63
2021/10/28 10:24:59;;;;;;;7.33;3.57;;;15.40;1.00;;;;;;5091945;28;20285;-62
2021/10/28 11:21:42;;;;;;;4.37;2.90;;;16.50;1.00;;;;;;5091400;28;20219;-67
2021/10/28 11:27:31;;;;;;;3.30;2.40;;;16.60;1.00;;;;;;5043789;28;20211;-66
2021/10/28 12:17:33;;;;;;;5.90;3.43;;;17.10;1.00;;;;;;5059790;28;20250;-62
2021/10/28 12:43:43;;;;;;;5.87;3.33;;;17.50;1.00;;;;;;5088831;28;20578;-62
2021/10/28 12:46:24;;;;;;;9.97;3.33;;;17.50;1.00;;;;;;5088190;28;20204;-61
2021/10/28 12:51:51;;;;;;;6.13;3.20;;;17.60;1.00;;;;;;5064974;28;20587;-62
2021/10/28 13:03:30;;;;;;;5.13;3.23;;;17.60;1.00;;;;;;5088332;28;20293;-62
2021/10/28 13:28:22;;;;;;;5.77;2.93;;;17.30;1.00;;;;;;5087907;28;20259;-61
2021/10/28 13:50:16;;;;;;;5.40;2.53;;;17.20;1.00;;;;;;5074238;28;20684;-63
2021/10/28 14:37:48;;;;;;;4.67;2.83;;;16.10;99.90;;;;;;5088858;28;20239;-63
2021/10/28 15:02:31;;;;;;;6.47;4.10;;;15.60;99.90;;;;;;5088961;28;20313;-62
2021/10/28 15:29:43;;;;;;;8.23;5.13;;;15.00;1.00;;;;;;5088247;28;20230;-65
2021/10/28 15:35:10;;;;;;;8.60;5.70;;;14.80;1.00;;;;;;5087901;28;20219;-62
2021/10/28 15:37:49;;;;;;;8.77;5.93;;;14.70;1.00;;;;;;5075192;28;20659;-62
2021/10/28 15:40:25;;;;;;;8.20;5.67;;;14.60;1.00;;;;;;5064398;28;20213;-64
2021/10/28 15:43:27;;;;;;;10.03;6.20;;;14.50;1.00;;;;;;5053774;28;20225;-64
2021/10/28 15:54:24;;;;;;;12.47;8.23;;;14.20;1.00;;;;;;5053863;28;20202;-68
2021/10/28 15:57:04;;;;;;;10.73;7.27;;;14.10;1.00;;;;;;5053673;28;20216;-68
2021/10/28 15:59:47;;;;;;;9.90;7.70;;;14.10;1.00;;;;;;5053489;28;20197;-65
2021/10/28 16:24:08;;;;;;;15.47;10.67;;;13.40;1.00;;;;;;5073407;28;20212;-65
2021/10/28 16:26:35;;;;;;;15.70;10.13;;;13.40;1.00;;;;;;5073148;28;20219;-66
2021/10/28 16:29:06;;;;;;;12.83;10.03;;;13.40;1.00;;;;;;5073466;28;20232;-68
2021/10/28 16:31:35;;;;;;;16.17;11.23;;;13.30;1.00;;;;;;5072973;28;20252;-68
2021/10/28 16:34:01;;;;;;;13.50;10.67;;;13.20;1.00;;;;;;5073330;28;20213;-67
2021/10/28 16:36:30;;;;;;;17.40;12.43;;;13.10;1.00;;;;;;5073303;28;20251;-67
2021/10/28 16:38:58;;;;;;;18.10;12.20;;;13.00;1.00;;;;;;5073342;28;20229;-68
2021/10/28 16:41:24;;;;;;;15.63;11.03;;;12.90;1.00;;;;;;5072811;28;20277;-69
2021/10/28 16:43:51;;;;;;;15.83;11.33;;;12.90;1.00;;;;;;5072990;28;20208;-66
2021/10/28 16:46:19;;;;;;;16.50;12.20;;;12.90;1.00;;;;;;5072672;28;20595;-66
2021/10/28 16:48:45;;;;;;;18.30;13.00;;;12.80;1.00;;;;;;5071916;28;20204;-65
2021/10/28 16:51:12;;;;;;;17.80;11.27;;;12.70;1.00;;;;;;5073322;28;20212;-64
2021/10/28 16:53:43;;;;;;;17.90;11.93;;;12.60;1.00;;;;;;5073111;28;20577;-64
2021/10/28 16:56:10;;;;;;;18.07;12.50;;;12.60;1.00;;;;;;5070311;28;20224;-64
2021/10/28 16:58:37;;;;;;;17.47;12.63;;;12.40;1.00;;;;;;5072094;28;20213;-66
2021/10/28 17:01:04;;;;;;;17.97;12.67;;;12.30;1.00;;;;;;5072219;28;20280;-64
2021/10/28 17:03:30;;;;;;;18.00;12.80;;;12.20;1.00;;;;;;5072748;28;20200;-64
2021/10/28 17:05:57;;;;;;;19.67;12.60;;;12.20;1.00;;;;;;5072125;28;20246;-65
2021/10/28 17:08:24;;;;;;;17.07;12.67;;;12.20;1.00;;;;;;5072755;28;20205;-66
2021/10/28 17:10:53;;;;;;;19.67;12.77;;;12.10;1.00;;;;;;5072271;28;20326;-68
2021/10/28 17:13:20;;;;;;;19.17;13.50;;;12.10;1.00;;;;;;5072377;28;20734;-64
2021/10/28 17:15:46;;;;;;;19.37;13.47;;;12.10;1.00;;;;;;5071815;28;20209;-65
2021/10/28 17:18:13;;;;;;;17.97;12.70;;;12.00;1.00;;;;;;5072194;28;20702;-63
2021/10/28 17:20:40;;;;;;;19.90;13.77;;;12.00;1.00;;;;;;5072106;28;20209;-64
2021/10/28 17:23:11;;;;;;;18.40;13.67;;;11.90;1.00;;;;;;5072096;28;20727;-64
2021/10/28 17:25:39;;;;;;;21.13;14.30;;;11.90;1.00;;;;;;5071769;28;20260;-66
2021/10/28 17:28:09;;;;;;;19.63;14.27;;;11.80;1.00;;;;;;5072355;28;20211;-65
2021/10/28 17:30:36;;;;;;;23.60;14.93;;;11.80;1.00;;;;;;5071840;28;20227;-64
2021/10/28 17:33:03;;;;;;;20.00;14.93;;;11.80;1.00;;;;;;5072126;28;20231;-65
2021/10/28 17:35:30;;;;;;;19.57;14.33;;;11.70;1.00;;;;;;5072370;28;20205;-65
2021/10/28 17:37:57;;;;;;;23.17;14.93;;;11.70;1.00;;;;;;5072645;28;20312;-64
2021/10/28 17:40:25;;;;;;;19.87;13.77;;;11.70;1.00;;;;;;5071792;28;20197;-66
2021/10/28 17:42:54;;;;;;;19.77;14.47;;;11.70;1.00;;;;;;5071480;28;20642;-65
2021/10/28 17:45:25;;;;;;;20.20;14.93;;;11.60;1.00;;;;;;5071977;28;20225;-65
2021/10/28 17:47:52;;;;;;;22.60;15.37;;;11.60;1.00;;;;;;5071963;28;20206;-66
2021/10/28 17:50:19;;;;;;;23.00;15.17;;;11.50;1.00;;;;;;5071869;28;20204;-65
2021/10/28 17:52:46;;;;;;;24.20;15.20;;;11.40;1.00;;;;;;5071559;28;20228;-65
2021/10/28 17:55:13;;;;;;;21.90;15.60;;;11.40;1.00;;;;;;5071375;28;20210;-64
2021/10/28 17:57:43;;;;;;;22.47;14.87;;;11.40;1.00;;;;;;5071596;28;20591;-67
2021/10/28 18:00:12;;;;;;;21.40;14.97;;;11.40;1.00;;;;;;5071666;28;20266;-65
2021/10/28 18:02:41;;;;;;;23.37;15.87;;;11.30;1.00;;;;;;5071577;28;20263;-67
2021/10/28 18:05:09;;;;;;;21.60;16.03;;;11.30;1.00;;;;;;5071270;28;20602;-67
2021/10/28 18:07:36;;;;;;;27.47;17.07;;;11.20;1.00;;;;;;5071775;28;20212;-67
2021/10/28 18:10:05;;;;;;;25.20;16.70;;;11.20;1.00;;;;;;5071349;28;20609;-67
2021/10/28 18:12:32;;;;;;;25.90;17.27;;;11.10;1.00;;;;;;5071827;28;20638;-65
2021/10/28 18:14:59;;;;;;;24.33;16.50;;;11.10;1.00;;;;;;5071247;28;20205;-66
2021/10/28 18:17:27;;;;;;;23.10;16.87;;;11.00;1.00;;;;;;5071703;28;20220;-62
2021/10/28 18:19:55;;;;;;;26.20;16.93;;;11.00;1.00;;;;;;5070636;28;20266;-65
2021/10/28 18:22:22;;;;;;;25.43;17.43;;;11.00;1.00;;;;;;5069411;28;20270;-65
2021/10/28 18:24:49;;;;;;;26.30;17.33;;;10.90;1.00;;;;;;5071468;28;20224;-64
2021/10/28 18:27:16;;;;;;;25.80;16.23;;;10.90;1.00;;;;;;5071177;28;20208;-66
2021/10/28 18:29:43;;;;;;;27.13;17.33;;;10.80;1.00;;;;;;5071642;28;20594;-65
2021/10/28 18:32:10;;;;;;;28.83;18.10;;;10.80;1.00;;;;;;5071127;28;20239;-65
2021/10/28 18:34:37;;;;;;;27.37;17.40;;;10.70;1.00;;;;;;5071788;28;20262;-59
2021/10/28 18:37:06;;;;;;;26.00;17.27;;;10.70;1.00;;;;;;5068956;28;20202;-62
2021/10/28 18:39:33;;;;;;;26.67;17.13;;;10.70;1.00;;;;;;5071262;28;20668;-60
2021/10/28 18:42:00;;;;;;;24.33;17.07;;;10.60;1.00;;;;;;5071161;28;20594;-63
2021/10/28 18:44:27;;;;;;;29.57;18.27;;;10.60;1.00;;;;;;5071299;28;20209;-62
2021/10/28 18:46:54;;;;;;;27.10;17.67;;;10.60;1.00;;;;;;5070968;28;20240;-62
2021/10/28 18:49:22;;;;;;;27.63;17.83;;;10.60;1.00;;;;;;5071159;28;20201;-64
2021/10/28 18:51:49;;;;;;;27.10;17.90;;;10.50;1.00;;;;;;5071245;28;20232;-64
2021/10/28 18:54:19;;;;;;;28.43;18.33;;;10.50;1.00;;;;;;5071464;28;20205;-67
2021/10/28 18:56:45;;;;;;;29.90;18.70;;;10.50;1.00;;;;;;5070930;28;20583;-64
2021/10/28 18:59:13;;;;;;;28.07;18.30;;;10.50;1.00;;;;;;5071277;28;20209;-65
2021/10/28 19:01:40;;;;;;;29.17;18.83;;;10.40;1.00;;;;;;5070942;28;20224;-64
2021/10/28 19:04:06;;;;;;;29.67;18.93;;;10.30;1.00;;;;;;5071065;28;20216;-65
2021/10/28 19:06:33;;;;;;;31.90;18.87;;;10.30;1.00;;;;;;5070905;28;20231;-64
2021/10/28 19:08:59;;;;;;;27.10;18.63;;;10.20;1.00;;;;;;5071321;28;20258;-65
2021/10/28 19:11:28;;;;;;;28.73;18.23;;;10.20;1.00;;;;;;5072000;28;20271;-66
2021/10/28 19:13:55;;;;;;;27.90;18.93;;;10.20;1.00;;;;;;5074962;28;20255;-63
2021/10/28 19:16:22;;;;;;;28.17;18.00;;;10.20;1.00;;;;;;5074387;28;20625;-65
2021/10/28 19:18:49;;;;;;;26.60;17.37;;;10.20;1.00;;;;;;5073930;28;20263;-65
2021/10/28 19:21:16;;;;;;;28.93;18.73;;;10.20;1.00;;;;;;5074663;28;20233;-65
2021/10/28 19:23:43;;;;;;;28.10;18.20;;;10.10;1.00;;;;;;5074342;28;20213;-63
2021/10/28 19:26:10;;;;;;;30.73;19.17;;;10.10;1.00;;;;;;5074245;28;20231;-63
2021/10/28 19:28:40;;;;;;;27.07;17.77;;;10.10;1.00;;;;;;5075123;28;20205;-62
2021/10/28 19:31:10;;;;;;;27.70;19.00;;;10.10;1.00;;;;;;5074582;28;20292;-62
2021/10/28 19:33:43;;;;;;;29.27;18.33;;;10.10;1.00;;;;;;5074969;28;20213;-63
2021/10/28 19:36:13;;;;;;;29.63;18.30;;;10.00;1.00;;;;;;5074678;28;20227;-63
2021/10/28 19:38:51;;;;;;;29.30;17.47;;;10.00;1.00;;;;;;5074900;28;20587;-63
2021/10/28 19:41:37;;;;;;;26.90;17.10;;;10.10;1.00;;;;;;5074971;28;20324;-63
2021/10/28 19:46:50;;;;;;;26.93;16.17;;;10.00;1.00;;;;;;5074283;28;20231;-63
2021/10/28 19:49:16;;;;;;;24.47;16.63;;;10.00;1.00;;;;;;5074806;28;20209;-65
2021/10/28 19:51:43;;;;;;;25.10;16.33;;;10.00;1.00;;;;;;5074457;28;20721;-63
2021/10/28 19:54:12;;;;;;;26.57;16.87;;;10.00;1.00;;;;;;5074406;28;20237;-62
2021/10/28 19:56:40;;;;;;;27.57;17.40;;;10.00;1.00;;;;;;5074203;28;20197;-63
2021/10/28 19:59:11;;;;;;;27.90;17.50;;;10.00;1.00;;;;;;5074145;28;20688;-63
2021/10/28 20:01:43;;;;;;;25.10;16.47;;;10.00;1.00;;;;;;5074408;28;20615;-63
2021/10/28 20:07:09;;;;;;;27.03;17.50;;;9.90;1.00;;;;;;5073859;28;20237;-63
2021/10/28 20:20:43;;;;;;;23.27;14.67;;;9.90;1.00;;;;;;5073680;28;20204;-63
2021/10/28 20:23:10;;;;;;;25.13;15.33;;;9.90;1.00;;;;;;5073700;28;20232;-63
2021/10/28 20:25:37;;;;;;;27.70;15.00;;;9.90;1.00;;;;;;5073310;28;20274;-63
2021/10/28 20:28:06;;;;;;;23.70;14.97;;;9.90;1.00;;;;;;5073787;28;20686;-63
2021/10/28 20:30:45;;;;;;;24.77;14.60;;;9.90;1.00;;;;;;5073866;28;20621;-63
2021/10/28 20:33:13;;;;;;;21.77;14.50;;;9.90;1.00;;;;;;5073866;28;20311;-63
2021/10/28 20:35:54;;;;;;;23.50;14.77;;;9.90;1.00;;;;;;5073270;28;20234;-63
2021/10/28 20:38:21;;;;;;;23.63;15.07;;;10.00;1.00;;;;;;5073927;28;20224;-63
2021/10/28 20:40:48;;;;;;;21.63;14.67;;;10.00;1.00;;;;;;5073634;28;20730;-63